Time;durP1;ratioP1;P1;durP2;ratioP2;P2;SDS_P1;SDS_P2;PMS_P1;PMS_P2;Temp;Humidity;BMP_temperature;BMP_pressure;BME280_temperature;BME280_humidity;BME280_pressure;Samples;Min_cycle;Max_cycle;Signal;HPM_P1;HPM_P2
2021/07/02 00:01:47;;;;;;;15.40;10.23;;;;;;;;;;4540224;28;20033;-67
2021/07/02 00:03:57;;;;;;;14.20;10.80;;;;;;;;;;4537839;28;20037;-67
2021/07/02 00:06:08;;;;;;;14.63;10.93;;;;;;;;;;4539809;28;20136;-68
2021/07/02 00:08:18;;;;;;;13.40;10.00;;;;;;;;;;4527501;28;20548;-67
2021/07/02 00:10:29;;;;;;;13.53;10.17;;;;;;;;;;4540671;28;20117;-67
2021/07/02 00:12:39;;;;;;;13.63;10.30;;;;;;;;;;4538075;28;20040;-68
2021/07/02 00:14:50;;;;;;;12.07;8.87;;;;;;;;;;4541972;28;20061;-68
2021/07/02 00:17:00;;;;;;;12.87;9.67;;;;;;;;;;4538342;28;20033;-68
2021/07/02 00:19:10;;;;;;;12.70;10.40;;;;;;;;;;4539834;28;20044;-68
2021/07/02 00:21:21;;;;;;;13.07;9.67;;;;;;;;;;4520956;28;20107;-68
2021/07/02 00:23:32;;;;;;;12.53;8.63;;;;;;;;;;4541975;28;20132;-68
2021/07/02 00:25:43;;;;;;;14.82;9.88;;;;;;;;;;4540107;28;20024;-68
2021/07/02 00:27:53;;;;;;;14.23;10.37;;;;;;;;;;4541720;28;20037;-68
2021/07/02 00:30:05;;;;;;;12.97;10.23;;;;;;;;;;4539008;28;20048;-68
2021/07/02 00:32:15;;;;;;;14.13;10.20;;;;;;;;;;4539649;28;20093;-68
2021/07/02 00:34:26;;;;;;;12.20;10.20;;;;;;;;;;4543589;28;20034;-68
2021/07/02 00:36:36;;;;;;;12.03;9.17;;;;;;;;;;4544629;28;20033;-67
2021/07/02 00:38:47;;;;;;;13.73;9.90;;;;;;;;;;4543700;28;20056;-68
2021/07/02 00:40:57;;;;;;;11.50;9.20;;;;;;;;;;4544435;28;20119;-68
2021/07/02 00:43:09;;;;;;;14.25;9.75;;;;;;;;;;4523105;28;20513;-68
2021/07/02 00:45:19;;;;;;;12.10;8.73;;;;;;;;;;4542193;28;20671;-67
2021/07/02 00:47:29;;;;;;;12.90;8.67;;;;;;;;;;4542168;28;20116;-68
2021/07/02 00:49:40;;;;;;;13.63;9.63;;;;;;;;;;4542793;28;20123;-68
2021/07/02 00:51:51;;;;;;;14.77;9.63;;;;;;;;;;4542600;28;20545;-68
2021/07/02 00:54:02;;;;;;;13.35;10.00;;;;;;;;;;4543262;28;20544;-68
2021/07/02 00:56:19;;;;;;;13.65;9.77;;;;;;;;;;4545298;28;20060;-68
2021/07/02 00:58:33;;;;;;;13.43;9.35;;;;;;;;;;4541618;28;20763;-68
2021/07/02 01:00:44;;;;;;;13.30;9.57;;;;;;;;;;4540190;28;20114;-68
2021/07/02 01:02:56;;;;;;;12.68;9.20;;;;;;;;;;4542968;28;20033;-68
2021/07/02 01:05:07;;;;;;;14.13;9.47;;;;;;;;;;4539154;28;20434;-68
2021/07/02 01:07:20;;;;;;;12.38;8.93;;;;;;;;;;4543691;28;20040;-68
2021/07/02 01:09:30;;;;;;;13.18;9.00;;;;;;;;;;4543807;28;20025;-68
2021/07/02 01:11:41;;;;;;;14.33;9.43;;;;;;;;;;4528556;28;20041;-67
2021/07/02 01:13:51;;;;;;;11.70;8.30;;;;;;;;;;4541061;28;20083;-68
2021/07/02 01:16:02;;;;;;;13.07;9.20;;;;;;;;;;4543282;28;20486;-68
2021/07/02 01:18:14;;;;;;;10.93;7.80;;;;;;;;;;4557898;28;20044;-68
2021/07/02 01:20:26;;;;;;;10.57;7.75;;;;;;;;;;4542894;28;20033;-68
2021/07/02 01:22:39;;;;;;;13.47;8.17;;;;;;;;;;4540201;28;20037;-67
2021/07/02 01:24:50;;;;;;;10.82;6.93;;;;;;;;;;4539994;28;20094;-67
2021/07/02 01:27:00;;;;;;;13.23;8.07;;;;;;;;;;4541606;28;20151;-67
2021/07/02 01:29:12;;;;;;;11.40;7.88;;;;;;;;;;4541538;28;20033;-67
2021/07/02 01:31:22;;;;;;;13.63;8.30;;;;;;;;;;4542462;28;20036;-67
2021/07/02 01:33:33;;;;;;;13.82;8.60;;;;;;;;;;4542956;28;20033;-67
2021/07/02 01:35:44;;;;;;;10.32;7.13;;;;;;;;;;4544281;28;20495;-68
2021/07/02 01:37:57;;;;;;;11.02;7.85;;;;;;;;;;4539311;28;20033;-67
2021/07/02 01:40:09;;;;;;;11.82;7.82;;;;;;;;;;4541783;28;20032;-68
2021/07/02 01:42:20;;;;;;;11.43;7.60;;;;;;;;;;4524193;28;20914;-68
2021/07/02 01:44:31;;;;;;;11.60;7.70;;;;;;;;;;4541973;28;20753;-68
2021/07/02 01:46:42;;;;;;;11.40;6.90;;;;;;;;;;4540599;28;20047;-67
2021/07/02 01:48:53;;;;;;;11.40;7.18;;;;;;;;;;4543327;28;20037;-68
2021/07/02 01:51:07;;;;;;;10.48;7.45;;;;;;;;;;4526352;28;20041;-68
2021/07/02 01:53:18;;;;;;;12.35;7.20;;;;;;;;;;4542754;28;20037;-67
2021/07/02 01:55:31;;;;;;;12.77;8.32;;;;;;;;;;4543428;28;20071;-67
2021/07/02 01:57:43;;;;;;;11.65;7.68;;;;;;;;;;4546800;28;20047;-67
2021/07/02 01:59:59;;;;;;;12.32;7.28;;;;;;;;;;4527881;28;20041;-67
2021/07/02 02:02:11;;;;;;;;;;;;;;;;;;4543937;28;20041;-67
2021/07/02 02:04:22;;;;;;;10.43;7.47;;;;;;;;;;4542469;28;19924;-67
2021/07/02 02:06:33;;;;;;;12.85;6.90;;;;;;;;;;4542388;28;20122;-67
2021/07/02 02:08:44;;;;;;;11.73;7.93;;;;;;;;;;4540863;28;20087;-68
2021/07/02 02:10:55;;;;;;;11.27;6.72;;;;;;;;;;4540739;28;20028;-67
2021/07/02 02:13:11;;;;;;;11.32;7.18;;;;;;;;;;4537504;28;20044;-67
2021/07/02 02:15:21;;;;;;;12.43;7.50;;;;;;;;;;4542895;28;20507;-67
2021/07/02 02:17:36;;;;;;;13.50;7.63;;;;;;;;;;4524942;28;20038;-67
2021/07/02 02:19:46;;;;;;;9.47;5.87;;;;;;;;;;4540931;28;20037;-68
2021/07/02 02:21:57;;;;;;;11.40;7.43;;;;;;;;;;4541578;28;20102;-67
2021/07/02 02:24:08;;;;;;;10.85;6.70;;;;;;;;;;4542843;28;20709;-68
2021/07/02 02:26:18;;;;;;;9.93;6.07;;;;;;;;;;4542036;28;20106;-68
2021/07/02 02:28:29;;;;;;;12.25;7.07;;;;;;;;;;4528643;28;20068;-68
2021/07/02 02:30:40;;;;;;;12.18;7.03;;;;;;;;;;4542656;28;20043;-68
2021/07/02 02:32:53;;;;;;;10.95;6.93;;;;;;;;;;4537757;28;20730;-68
2021/07/02 02:35:09;;;;;;;12.52;7.35;;;;;;;;;;4540540;28;20485;-68
2021/07/02 02:37:21;;;;;;;10.68;7.00;;;;;;;;;;4538586;28;20122;-66
2021/07/02 02:39:31;;;;;;;11.83;7.43;;;;;;;;;;4541953;28;20864;-67
2021/07/02 02:41:43;;;;;;;11.77;7.65;;;;;;;;;;4541858;28;20072;-67
2021/07/02 02:43:54;;;;;;;11.95;7.00;;;;;;;;;;4540020;28;20087;-68
2021/07/02 02:46:04;;;;;;;8.67;5.17;;;;;;;;;;4525645;28;20120;-67
2021/07/02 02:48:15;;;;;;;12.23;7.18;;;;;;;;;;4527953;28;20041;-67
2021/07/02 02:50:26;;;;;;;8.17;4.73;;;;;;;;;;4539556;28;20025;-68
2021/07/02 02:52:37;;;;;;;11.30;7.03;;;;;;;;;;4541473;28;20029;-67
2021/07/02 02:54:47;;;;;;;12.03;7.00;;;;;;;;;;4542181;28;20041;-68
2021/07/02 02:57:04;;;;;;;9.87;5.77;;;;;;;;;;4541866;28;20039;-68
2021/07/02 02:59:15;;;;;;;11.00;6.38;;;;;;;;;;4540362;28;20037;-67
2021/07/02 03:01:26;;;;;;;13.27;7.53;;;;;;;;;;4541362;28;20036;-67
2021/07/02 03:03:38;;;;;;;12.18;7.55;;;;;;;;;;4540161;28;20025;-67
2021/07/02 03:05:49;;;;;;;12.05;7.30;;;;;;;;;;4538532;28;20037;-67
2021/07/02 03:08:00;;;;;;;11.70;7.68;;;;;;;;;;4540273;28;20037;-67
2021/07/02 03:10:11;;;;;;;;;;;;;;;;;;4526158;28;20033;-67
2021/07/02 03:12:22;;;;;;;14.47;8.13;;;;;;;;;;4539868;28;19920;-68
2021/07/02 03:14:33;;;;;;;12.18;6.63;;;;;;;;;;4541297;28;20064;-68
2021/07/02 03:16:44;;;;;;;11.60;7.55;;;;;;;;;;4542714;28;20064;-67
2021/07/02 03:18:55;;;;;;;12.82;6.80;;;;;;;;;;4542108;28;20744;-67
2021/07/02 03:21:05;;;;;;;14.05;7.97;;;;;;;;;;4541232;28;20107;-66
2021/07/02 03:23:16;;;;;;;10.53;6.40;;;;;;;;;;4540573;28;20039;-67
2021/07/02 03:25:27;;;;;;;11.40;6.82;;;;;;;;;;4539968;28;20029;-68
2021/07/02 03:27:38;;;;;;;13.55;8.07;;;;;;;;;;4543261;28;20050;-67
2021/07/02 03:29:50;;;;;;;12.55;7.38;;;;;;;;;;4540536;28;20044;-68
2021/07/02 03:32:01;;;;;;;16.92;8.48;;;;;;;;;;4539206;28;20035;-68
2021/07/02 03:34:12;;;;;;;14.33;8.47;;;;;;;;;;4543143;28;20180;-67
2021/07/02 03:36:22;;;;;;;13.27;7.80;;;;;;;;;;4542346;28;20687;-68
2021/07/02 03:38:34;;;;;;;12.48;7.80;;;;;;;;;;4539131;28;20071;-68
2021/07/02 03:40:45;;;;;;;10.35;6.35;;;;;;;;;;4541316;28;20033;-68
2021/07/02 03:42:56;;;;;;;12.20;6.77;;;;;;;;;;4543609;28;20076;-68
2021/07/02 03:45:07;;;;;;;11.82;7.05;;;;;;;;;;4540878;28;20029;-68
2021/07/02 03:47:20;;;;;;;13.82;8.15;;;;;;;;;;4538631;28;20055;-68
2021/07/02 03:49:31;;;;;;;12.37;8.33;;;;;;;;;;4542363;28;20028;-68
2021/07/02 03:51:44;;;;;;;12.05;7.72;;;;;;;;;;4539687;28;20188;-68
2021/07/02 03:53:54;;;;;;;13.63;7.95;;;;;;;;;;4541718;28;20043;-68
2021/07/02 03:56:06;;;;;;;13.50;7.67;;;;;;;;;;4542105;28;20492;-67
2021/07/02 03:58:16;;;;;;;11.85;7.78;;;;;;;;;;4540820;28;20119;-67
2021/07/02 04:00:27;;;;;;;14.43;8.53;;;;;;;;;;4539999;28;20068;-68
2021/07/02 04:02:37;;;;;;;12.27;8.13;;;;;;;;;;4542197;28;20489;-67
2021/07/02 04:04:47;;;;;;;10.80;6.63;;;;;;;;;;4539969;28;20029;-68
2021/07/02 04:06:58;;;;;;;13.43;8.00;;;;;;;;;;4539595;28;20533;-67
2021/07/02 04:09:08;;;;;;;13.13;8.17;;;;;;;;;;4541650;28;20029;-68
2021/07/02 04:11:19;;;;;;;13.23;7.67;;;;;;;;;;4543901;28;20037;-68
2021/07/02 04:13:29;;;;;;;11.80;7.70;;;;;;;;;;4545563;28;20159;-68
2021/07/02 04:15:40;;;;;;;9.90;6.47;;;;;;;;;;4544443;28;20025;-68
2021/07/02 04:17:50;;;;;;;11.33;7.03;;;;;;;;;;4529282;28;20565;-68
2021/07/02 04:20:00;;;;;;;11.37;7.33;;;;;;;;;;4541461;28;20044;-68
2021/07/02 04:22:11;;;;;;;12.17;7.60;;;;;;;;;;4542518;28;20040;-68
2021/07/02 04:24:21;;;;;;;5.20;3.70;;;;;;;;;;4542389;28;20029;-67
2021/07/02 04:26:32;;;;;;;11.40;7.07;;;;;;;;;;4541807;28;20029;-67
2021/07/02 04:28:42;;;;;;;12.20;7.73;;;;;;;;;;4541775;28;20041;-67
2021/07/02 04:30:53;;;;;;;12.03;7.07;;;;;;;;;;4540380;28;20060;-67
2021/07/02 04:33:04;;;;;;;11.63;7.80;;;;;;;;;;4538163;28;20453;-67
2021/07/02 04:35:14;;;;;;;11.57;7.20;;;;;;;;;;4541181;28;20033;-68
2021/07/02 04:37:24;;;;;;;9.37;6.10;;;;;;;;;;4540720;28;20493;-68
2021/07/02 04:39:38;;;;;;;11.43;7.03;;;;;;;;;;4542332;28;20094;-67
2021/07/02 04:41:48;;;;;;;12.30;7.63;;;;;;;;;;4541263;28;20589;-68
2021/07/02 04:43:59;;;;;;;13.33;7.87;;;;;;;;;;4541234;28;20041;-68
2021/07/02 04:46:09;;;;;;;11.73;7.70;;;;;;;;;;4542193;28;20041;-68
2021/07/02 04:48:20;;;;;;;11.20;7.27;;;;;;;;;;4542730;28;20033;-68
2021/07/02 04:50:30;;;;;;;11.57;7.40;;;;;;;;;;4544326;28;20039;-68
2021/07/02 04:52:41;;;;;;;10.80;7.57;;;;;;;;;;4540797;28;20259;-68
2021/07/02 04:54:51;;;;;;;11.43;7.37;;;;;;;;;;4540514;28;20037;-68
2021/07/02 04:57:02;;;;;;;11.73;8.20;;;;;;;;;;4542030;28;20032;-67
2021/07/02 04:59:14;;;;;;;12.73;7.80;;;;;;;;;;4540329;28;20044;-67
2021/07/02 05:01:24;;;;;;;;;;;;;;;;;;4542472;28;20029;-67
2021/07/02 05:03:35;;;;;;;12.05;7.95;;;;;;;;;;4525812;28;20370;-67
2021/07/02 05:05:45;;;;;;;11.83;7.17;;;;;;;;;;4544399;28;20121;-67
2021/07/02 05:07:56;;;;;;;12.67;7.37;;;;;;;;;;4542253;28;20045;-67
2021/07/02 05:10:06;;;;;;;11.47;7.23;;;;;;;;;;4540655;28;20135;-67
2021/07/02 05:12:17;;;;;;;13.35;8.45;;;;;;;;;;4542462;28;20029;-67
2021/07/02 05:14:27;;;;;;;12.30;7.47;;;;;;;;;;4510114;28;20068;-68
2021/07/02 05:16:38;;;;;;;11.03;7.17;;;;;;;;;;4538998;28;20048;-68
2021/07/02 05:18:48;;;;;;;12.13;7.60;;;;;;;;;;4542296;28;20172;-68
2021/07/02 05:20:59;;;;;;;10.77;7.57;;;;;;;;;;4543294;28;20033;-68
2021/07/02 05:23:10;;;;;;;11.80;7.70;;;;;;;;;;4541768;28;20037;-67
2021/07/02 05:25:21;;;;;;;11.85;7.30;;;;;;;;;;4542812;28;20713;-67
2021/07/02 05:27:31;;;;;;;11.97;7.43;;;;;;;;;;4542333;28;20045;-67
2021/07/02 05:29:42;;;;;;;12.30;7.27;;;;;;;;;;4541289;28;20035;-68
2021/07/02 05:31:52;;;;;;;11.00;7.17;;;;;;;;;;4544518;28;20041;-67
2021/07/02 05:34:03;;;;;;;11.83;7.57;;;;;;;;;;4542815;28;20040;-67
2021/07/02 05:36:13;;;;;;;11.37;7.60;;;;;;;;;;4542024;28;20259;-68
2021/07/02 05:38:24;;;;;;;11.47;7.70;;;;;;;;;;4539732;28;20548;-67
2021/07/02 05:40:34;;;;;;;11.77;8.03;;;;;;;;;;4544681;28;20041;-67
2021/07/02 05:42:45;;;;;;;11.00;7.20;;;;;;;;;;4541793;28;20025;-68
2021/07/02 05:44:55;;;;;;;11.02;7.47;;;;;;;;;;4543094;28;20036;-68
2021/07/02 05:47:06;;;;;;;10.27;6.80;;;;;;;;;;4540658;28;20123;-68
2021/07/02 05:49:17;;;;;;;11.53;7.27;;;;;;;;;;4540659;28;20108;-68
2021/07/02 05:51:27;;;;;;;12.23;8.00;;;;;;;;;;4541091;28;20043;-68
2021/07/02 05:53:38;;;;;;;12.00;7.60;;;;;;;;;;4538329;28;20040;-68
2021/07/02 05:55:48;;;;;;;10.33;7.07;;;;;;;;;;4541066;28;20036;-62
2021/07/02 05:58:00;;;;;;;9.37;6.40;;;;;;;;;;4544812;28;21175;-62
2021/07/02 06:00:11;;;;;;;10.38;6.07;;;;;;;;;;4541142;28;20033;-62
2021/07/02 06:02:21;;;;;;;9.55;6.82;;;;;;;;;;4542853;28;20037;-62
2021/07/02 06:04:32;;;;;;;10.03;6.07;;;;;;;;;;4542741;28;20805;-62
2021/07/02 06:06:47;;;;;;;12.07;7.33;;;;;;;;;;4541478;28;20037;-62
2021/07/02 06:08:58;;;;;;;12.05;6.97;;;;;;;;;;4541254;28;20041;-62
2021/07/02 06:11:09;;;;;;;10.90;7.07;;;;;;;;;;4539084;28;20037;-62
2021/07/02 06:13:19;;;;;;;10.37;6.30;;;;;;;;;;4538142;28;20032;-62
2021/07/02 06:15:30;;;;;;;10.40;6.70;;;;;;;;;;4541676;28;20120;-62
2021/07/02 06:17:41;;;;;;;9.83;6.57;;;;;;;;;;4541468;28;20067;-62
2021/07/02 06:19:51;;;;;;;11.02;7.63;;;;;;;;;;4540025;28;20037;-62
2021/07/02 06:22:02;;;;;;;11.50;7.07;;;;;;;;;;4541257;28;20034;-62
2021/07/02 06:24:13;;;;;;;8.27;4.72;;;;;;;;;;4542828;28;20033;-62
2021/07/02 06:26:23;;;;;;;10.77;6.80;;;;;;;;;;4539433;28;20033;-62
2021/07/02 06:28:34;;;;;;;11.50;7.93;;;;;;;;;;4540230;28;20034;-62
2021/07/02 06:30:44;;;;;;;10.77;7.13;;;;;;;;;;4540712;28;20029;-62
2021/07/02 06:32:55;;;;;;;11.93;7.50;;;;;;;;;;4543544;28;20041;-62
2021/07/02 06:35:07;;;;;;;11.17;7.90;;;;;;;;;;4541777;28;20040;-62
2021/07/02 06:37:18;;;;;;;12.63;7.80;;;;;;;;;;4540623;28;20081;-62
2021/07/02 06:39:28;;;;;;;10.60;7.10;;;;;;;;;;4541183;28;20033;-62
2021/07/02 06:41:39;;;;;;;10.70;7.53;;;;;;;;;;4528126;28;20045;-62
2021/07/02 06:43:49;;;;;;;11.00;7.23;;;;;;;;;;4540080;28;20543;-65
2021/07/02 06:45:59;;;;;;;8.80;6.23;;;;;;;;;;4540221;28;20103;-64
2021/07/02 06:48:10;;;;;;;11.57;7.27;;;;;;;;;;4540813;28;20041;-65
2021/07/02 06:50:20;;;;;;;12.00;7.60;;;;;;;;;;4539426;28;20066;-65
2021/07/02 06:52:31;;;;;;;11.03;7.33;;;;;;;;;;4540160;28;20055;-65
2021/07/02 06:54:41;;;;;;;10.00;6.70;;;;;;;;;;4540202;28;20533;-65
2021/07/02 06:57:01;;;;;;;10.00;6.87;;;;;;;;;;4541441;28;20144;-64
2021/07/02 06:59:12;;;;;;;10.45;6.47;;;;;;;;;;4542123;28;20993;-66
2021/07/02 07:01:23;;;;;;;13.10;7.53;;;;;;;;;;4540174;28;20037;-66
2021/07/02 07:03:34;;;;;;;11.30;7.40;;;;;;;;;;4539351;28;20037;-64
2021/07/02 07:05:45;;;;;;;11.52;6.97;;;;;;;;;;4540867;28;20036;-65
2021/07/02 07:07:55;;;;;;;13.33;8.00;;;;;;;;;;4541125;28;20507;-65
2021/07/02 07:10:06;;;;;;;11.10;7.17;;;;;;;;;;4539221;28;20021;-66
2021/07/02 07:12:17;;;;;;;11.40;7.50;;;;;;;;;;4540635;28;20033;-65
2021/07/02 07:14:27;;;;;;;11.07;7.20;;;;;;;;;;4542506;28;20474;-66
2021/07/02 07:16:38;;;;;;;11.15;7.13;;;;;;;;;;4540865;28;20041;-66
2021/07/02 07:18:48;;;;;;;11.20;7.43;;;;;;;;;;4542769;28;20055;-65
2021/07/02 07:20:59;;;;;;;9.87;6.97;;;;;;;;;;4538059;28;20034;-66
2021/07/02 07:23:09;;;;;;;10.83;6.63;;;;;;;;;;4541329;28;20415;-66
2021/07/02 07:25:21;;;;;;;10.83;7.20;;;;;;;;;;4541568;28;20025;-66
2021/07/02 07:27:32;;;;;;;;;;;;;;;;;;4540777;28;20796;-66
2021/07/02 07:29:42;;;;;;;9.93;6.72;;;;;;;;;;4539256;28;19912;-66
2021/07/02 07:31:53;;;;;;;9.07;6.23;;;;;;;;;;4542913;28;20037;-65
2021/07/02 07:34:04;;;;;;;10.75;7.00;;;;;;;;;;4522973;28;20557;-65
2021/07/02 07:36:15;;;;;;;9.27;6.00;;;;;;;;;;4541638;28;20179;-65
2021/07/02 07:38:26;;;;;;;8.23;5.80;;;;;;;;;;4539004;28;20362;-65
2021/07/02 07:40:36;;;;;;;9.30;6.00;;;;;;;;;;4540616;28;20033;-65
2021/07/02 07:42:47;;;;;;;10.00;6.10;;;;;;;;;;4541418;28;20036;-65
2021/07/02 07:44:57;;;;;;;8.73;5.47;;;;;;;;;;4541206;28;20055;-64
2021/07/02 07:47:08;;;;;;;9.07;5.70;;;;;;;;;;4537126;28;20504;-65
2021/07/02 07:49:19;;;;;;;7.72;5.18;;;;;;;;;;4538494;28;20127;-67
2021/07/02 07:51:33;;;;;;;6.73;4.40;;;;;;;;;;4523307;28;20045;-64
2021/07/02 07:53:43;;;;;;;6.32;4.22;;;;;;;;;;4541508;28;20048;-74
2021/07/02 07:55:54;;;;;;;9.30;5.37;;;;;;;;;;4541377;28;20052;-69
2021/07/02 07:58:05;;;;;;;8.50;5.23;;;;;;;;;;4542607;28;20033;-71
2021/07/02 08:00:16;;;;;;;8.53;4.97;;;;;;;;;;4539550;28;20946;-74
2021/07/02 08:02:26;;;;;;;6.80;4.68;;;;;;;;;;4542343;28;20069;-68
2021/07/02 08:04:37;;;;;;;7.73;4.47;;;;;;;;;;4539975;28;20119;-73
2021/07/02 08:06:50;;;;;;;7.60;4.68;;;;;;;;;;4539932;28;20040;-67
2021/07/02 08:09:01;;;;;;;6.85;4.82;;;;;;;;;;4539807;28;20079;-67
2021/07/02 08:11:12;;;;;;;7.97;4.73;;;;;;;;;;4539039;28;20087;-68
2021/07/02 08:13:22;;;;;;;7.50;5.00;;;;;;;;;;4519981;28;20095;-65
2021/07/02 08:15:33;;;;;;;7.13;4.50;;;;;;;;;;4536970;28;20033;-67
2021/07/02 08:17:45;;;;;;;7.23;4.13;;;;;;;;;;4540914;28;20017;-68
2021/07/02 08:19:56;;;;;;;7.65;4.47;;;;;;;;;;4540669;28;20156;-66
2021/07/02 08:22:07;;;;;;;;;;;;;;;;;;4539981;28;20628;-66
2021/07/02 08:24:17;;;;;;;6.15;3.80;;;;;;;;;;4538908;28;19961;-66
2021/07/02 08:26:28;;;;;;;7.43;3.80;;;;;;;;;;4537562;28;20049;-66
2021/07/02 08:31:08;;;;;;;7.38;3.95;;;;;;;;;;4540616;28;20039;-66
2021/07/02 08:33:20;;;;;;;4.60;3.30;;;;;;;;;;4539317;28;20048;-66
2021/07/02 08:35:30;;;;;;;6.63;4.10;;;;;;;;;;4539857;28;20034;-67
2021/07/02 08:37:41;;;;;;;6.40;3.93;;;;;;;;;;4539490;28;20040;-66
2021/07/02 08:39:52;;;;;;;7.25;4.03;;;;;;;;;;4540744;28;20179;-67
2021/07/02 08:42:03;;;;;;;6.53;4.17;;;;;;;;;;4542065;28;20147;-66
2021/07/02 08:44:14;;;;;;;5.85;3.65;;;;;;;;;;4538050;28;20855;-65
2021/07/02 08:46:24;;;;;;;6.40;3.90;;;;;;;;;;4543920;28;20088;-65
2021/07/02 08:48:37;;;;;;;6.20;3.63;;;;;;;;;;4538800;28;20041;-65
2021/07/02 08:50:52;;;;;;;5.50;3.50;;;;;;;;;;4540700;28;20025;-65
2021/07/02 08:53:06;;;;;;;5.47;3.70;;;;;;;;;;4526787;28;20034;-65
2021/07/02 08:55:16;;;;;;;4.95;3.10;;;;;;;;;;4543131;28;20083;-65
2021/07/02 08:57:26;;;;;;;4.40;3.33;;;;;;;;;;4541918;28;20044;-65
2021/07/02 08:59:37;;;;;;;4.47;3.03;;;;;;;;;;4542806;28;21220;-65
2021/07/02 09:01:47;;;;;;;4.67;2.73;;;;;;;;;;4543678;28;20040;-66
2021/07/02 09:04:14;;;;;;;5.67;3.10;;;;;;;;;;4543409;28;20028;-66
2021/07/02 09:06:24;;;;;;;4.90;2.90;;;;;;;;;;4543500;28;21134;-66
2021/07/02 09:08:35;;;;;;;3.87;3.00;;;;;;;;;;4543062;28;20049;-66
2021/07/02 09:10:46;;;;;;;4.90;3.35;;;;;;;;;;4542647;28;20029;-66
2021/07/02 09:12:57;;;;;;;5.25;3.28;;;;;;;;;;4543428;28;20033;-66
2021/07/02 09:15:10;;;;;;;5.43;3.70;;;;;;;;;;4541995;28;20573;-66
2021/07/02 09:17:20;;;;;;;5.72;3.53;;;;;;;;;;4540189;28;20036;-66
2021/07/02 09:19:34;;;;;;;6.07;3.73;;;;;;;;;;4539355;28;20037;-66
2021/07/02 09:21:46;;;;;;;4.65;3.33;;;;;;;;;;4538996;28;20294;-66
2021/07/02 09:23:58;;;;;;;5.50;3.78;;;;;;;;;;4541996;28;20086;-66
2021/07/02 09:26:08;;;;;;;6.00;3.83;;;;;;;;;;4544765;28;20033;-66
2021/07/02 09:28:20;;;;;;;6.80;4.13;;;;;;;;;;4543277;28;20045;-66
2021/07/02 09:30:33;;;;;;;6.45;4.15;;;;;;;;;;4543127;28;20040;-66
2021/07/02 09:32:52;;;;;;;6.70;4.22;;;;;;;;;;4542636;28;20069;-66
2021/07/02 09:35:02;;;;;;;6.85;4.70;;;;;;;;;;4544102;28;20037;-66
2021/07/02 09:37:24;;;;;;;6.97;4.20;;;;;;;;;;4545024;28;20029;-66
2021/07/02 09:39:35;;;;;;;7.85;4.78;;;;;;;;;;4542995;28;20480;-66
2021/07/02 09:41:45;;;;;;;6.47;4.57;;;;;;;;;;4544164;28;20020;-66
2021/07/02 09:44:09;;;;;;;8.83;4.90;;;;;;;;;;4543000;28;20359;-67
2021/07/02 09:46:29;;;;;;;5.47;4.32;;;;;;;;;;4540311;28;20734;-66
2021/07/02 09:48:42;;;;;;;7.25;4.10;;;;;;;;;;4540969;28;20103;-65
2021/07/02 09:50:56;;;;;;;7.57;5.00;;;;;;;;;;4543052;28;20044;-66
2021/07/02 09:53:10;;;;;;;6.53;4.32;;;;;;;;;;4541509;28;20051;-65
2021/07/02 09:55:24;;;;;;;7.88;4.68;;;;;;;;;;4542359;28;20260;-65
2021/07/02 09:57:35;;;;;;;6.80;4.22;;;;;;;;;;4541366;28;20534;-65
2021/07/02 10:00:03;;;;;;;7.20;4.40;;;;;;;;;;4543111;28;20029;-66
2021/07/02 10:02:17;;;;;;;7.00;4.10;;;;;;;;;;4540472;28;20037;-66
2021/07/02 10:04:28;;;;;;;5.90;4.28;;;;;;;;;;4558853;28;20032;-66
2021/07/02 10:06:38;;;;;;;6.97;4.17;;;;;;;;;;4539770;28;20077;-65
2021/07/02 10:08:49;;;;;;;5.60;3.87;;;;;;;;;;4541847;28;20036;-65
2021/07/02 10:11:01;;;;;;;6.63;4.17;;;;;;;;;;4541171;28;20048;-67
2021/07/02 10:13:12;;;;;;;5.30;3.72;;;;;;;;;;4541766;28;20056;-67
2021/07/02 10:15:23;;;;;;;6.97;4.00;;;;;;;;;;4541261;28;20048;-66
2021/07/02 10:17:34;;;;;;;8.50;4.18;;;;;;;;;;4541894;28;20033;-65
2021/07/02 10:19:47;;;;;;;5.55;4.07;;;;;;;;;;4544406;28;20551;-66
2021/07/02 10:21:58;;;;;;;4.65;3.50;;;;;;;;;;4541435;28;20639;-68
2021/07/02 10:24:09;;;;;;;6.07;4.00;;;;;;;;;;4538904;28;20029;-65
2021/07/02 10:26:22;;;;;;;6.38;4.22;;;;;;;;;;4540831;28;20032;-65
2021/07/02 10:28:36;;;;;;;7.10;4.05;;;;;;;;;;4541285;28;20887;-66
2021/07/02 10:30:47;;;;;;;4.95;3.55;;;;;;;;;;4540675;28;20017;-65
2021/07/02 10:32:59;;;;;;;5.60;4.00;;;;;;;;;;4540949;28;20045;-67
2021/07/02 10:35:13;;;;;;;5.97;3.95;;;;;;;;;;4540767;28;21028;-65
2021/07/02 10:37:24;;;;;;;6.22;4.07;;;;;;;;;;4540194;28;20090;-68
2021/07/02 10:39:36;;;;;;;5.63;4.05;;;;;;;;;;4523020;28;20068;-66
2021/07/02 10:42:07;;;;;;;7.28;4.40;;;;;;;;;;4524964;28;21052;-67
2021/07/02 10:44:22;;;;;;;6.73;4.20;;;;;;;;;;4543643;28;20064;-65
2021/07/02 10:46:37;;;;;;;6.18;4.38;;;;;;;;;;4539865;28;20095;-66
2021/07/02 10:48:58;;;;;;;6.18;3.92;;;;;;;;;;4541083;28;20033;-65
2021/07/02 10:51:14;;;;;;;;;;;;;;;;;;4541095;28;20048;-75
2021/07/02 10:53:29;;;;;;;6.32;3.67;;;;;;;;;;4544293;28;19916;-74
2021/07/02 10:55:40;;;;;;;5.97;3.90;;;;;;;;;;4541074;28;20027;-76
2021/07/02 10:57:52;;;;;;;7.30;3.97;;;;;;;;;;4539925;28;20044;-77
2021/07/02 11:00:05;;;;;;;5.88;3.92;;;;;;;;;;4538486;28;20163;-67
2021/07/02 11:02:19;;;;;;;5.97;4.00;;;;;;;;;;4513571;28;20030;-73
2021/07/02 11:04:31;;;;;;;5.55;4.00;;;;;;;;;;4542235;28;20052;-74
2021/07/02 11:06:41;;;;;;;5.95;4.05;;;;;;;;;;4542364;28;20106;-74
2021/07/02 11:08:52;;;;;;;5.53;3.83;;;;;;;;;;4541915;28;20081;-74
2021/07/02 11:11:03;;;;;;;5.83;3.73;;;;;;;;;;4542387;28;20047;-74
2021/07/02 11:13:14;;;;;;;5.77;3.83;;;;;;;;;;4542861;28;20028;-74
2021/07/02 11:15:24;;;;;;;6.95;4.70;;;;;;;;;;4540236;28;20746;-74
2021/07/02 11:17:42;;;;;;;5.60;3.97;;;;;;;;;;4538375;28;20034;-74
2021/07/02 11:20:09;;;;;;;6.85;4.18;;;;;;;;;;4538750;28;20090;-74
2021/07/02 11:22:29;;;;;;;7.00;4.55;;;;;;;;;;4542127;28;20048;-74
2021/07/02 11:24:59;;;;;;;6.95;4.20;;;;;;;;;;4540787;28;20631;-74
2021/07/02 11:27:33;;;;;;;5.32;3.63;;;;;;;;;;4539872;28;20130;-74
2021/07/02 11:29:44;;;;;;;6.80;3.97;;;;;;;;;;4541846;28;20068;-74
2021/07/02 11:31:54;;;;;;;5.07;3.87;;;;;;;;;;4540811;28;20492;-74
2021/07/02 11:34:09;;;;;;;7.33;3.90;;;;;;;;;;4525741;28;20037;-74
2021/07/02 11:36:20;;;;;;;5.57;3.88;;;;;;;;;;4538933;28;20745;-74
2021/07/02 11:38:31;;;;;;;7.13;4.07;;;;;;;;;;4521742;28;20037;-74
2021/07/02 11:40:55;;;;;;;8.18;3.90;;;;;;;;;;4540071;28;20045;-74
2021/07/02 11:43:07;;;;;;;6.28;4.07;;;;;;;;;;4541684;28;20043;-74
2021/07/02 11:45:18;;;;;;;5.57;3.88;;;;;;;;;;4541009;28;20037;-73
2021/07/02 11:47:37;;;;;;;6.17;3.87;;;;;;;;;;4539227;28;20053;-74
2021/07/02 11:49:48;;;;;;;5.18;3.90;;;;;;;;;;4528211;28;20037;-74
2021/07/02 11:51:58;;;;;;;7.25;4.07;;;;;;;;;;4540463;28;20953;-74
2021/07/02 11:54:09;;;;;;;6.30;4.13;;;;;;;;;;4542080;28;20045;-74
2021/07/02 11:56:25;;;;;;;6.60;4.32;;;;;;;;;;4539631;28;20159;-74
2021/07/02 11:58:40;;;;;;;5.13;3.63;;;;;;;;;;4538445;28;20044;-73
2021/07/02 12:00:50;;;;;;;6.05;4.00;;;;;;;;;;4540236;28;20033;-74
2021/07/02 12:03:01;;;;;;;5.77;3.90;;;;;;;;;;4541406;28;20100;-74
2021/07/02 12:05:11;;;;;;;5.67;4.10;;;;;;;;;;4539418;28;20174;-74
2021/07/02 12:07:22;;;;;;;6.33;4.27;;;;;;;;;;4541665;28;20049;-73
2021/07/02 12:09:39;;;;;;;5.10;3.77;;;;;;;;;;4539522;28;20072;-74
2021/07/02 12:12:00;;;;;;;5.22;3.65;;;;;;;;;;4537493;28;20044;-73
2021/07/02 12:14:12;;;;;;;5.47;3.60;;;;;;;;;;4539768;28;20029;-73
2021/07/02 12:16:28;;;;;;;5.82;3.83;;;;;;;;;;4539021;28;20650;-74
2021/07/02 12:18:40;;;;;;;6.13;4.05;;;;;;;;;;4540045;28;20099;-73
2021/07/02 12:21:01;;;;;;;6.20;4.03;;;;;;;;;;4540597;28;21028;-73
2021/07/02 12:23:12;;;;;;;;;;;;;;;;;;4541129;28;20032;-74
2021/07/02 12:25:22;;;;;;;6.55;4.13;;;;;;;;;;4541220;28;20478;-74
2021/07/02 12:27:32;;;;;;;4.90;3.73;;;;;;;;;;4542390;28;20040;-73
2021/07/02 12:29:44;;;;;;;7.00;3.83;;;;;;;;;;4539527;28;20614;-73
2021/07/02 12:32:00;;;;;;;6.03;3.75;;;;;;;;;;4543652;28;20033;-72
2021/07/02 12:34:22;;;;;;;6.85;4.22;;;;;;;;;;4544097;28;20898;-74
2021/07/02 12:36:34;;;;;;;6.18;4.25;;;;;;;;;;4543677;28;20017;-73
2021/07/02 12:39:08;;;;;;;5.60;3.67;;;;;;;;;;4547284;28;20887;-74
2021/07/02 12:41:18;;;;;;;5.93;4.00;;;;;;;;;;4527092;28;20239;-73
2021/07/02 12:43:29;;;;;;;5.40;3.70;;;;;;;;;;4544370;28;20036;-74
2021/07/02 12:45:40;;;;;;;5.27;3.70;;;;;;;;;;4525469;28;20087;-74
2021/07/02 12:47:50;;;;;;;5.80;3.80;;;;;;;;;;4540854;28;20059;-74
2021/07/02 12:50:06;;;;;;;5.40;3.83;;;;;;;;;;4543923;28;20048;-73
2021/07/02 12:54:48;;;;;;;4.38;3.22;;;;;;;;;;4539348;28;20040;-74
2021/07/02 12:56:58;;;;;;;5.70;4.05;;;;;;;;;;4543599;28;20537;-74
2021/07/02 12:59:13;;;;;;;4.67;3.30;;;;;;;;;;4539664;28;20028;-73
2021/07/02 13:01:23;;;;;;;5.72;3.60;;;;;;;;;;4541765;28;20041;-73
2021/07/02 13:03:34;;;;;;;5.67;3.30;;;;;;;;;;4526586;28;20505;-73
2021/07/02 13:05:44;;;;;;;5.07;3.50;;;;;;;;;;4546290;28;20285;-73
2021/07/02 13:07:56;;;;;;;5.50;3.27;;;;;;;;;;4543278;28;20515;-74
2021/07/02 13:10:11;;;;;;;6.45;3.60;;;;;;;;;;4544026;28;20029;-74
2021/07/02 13:12:22;;;;;;;4.10;2.70;;;;;;;;;;4542366;28;20036;-74